Time;durP1;ratioP1;P1;durP2;ratioP2;P2;SDS_P1;SDS_P2;PMS_P1;PMS_P2;Temp;Humidity;BMP_temperature;BMP_pressure;BME280_temperature;BME280_humidity;BME280_pressure;Samples;Min_cycle;Max_cycle;Signal;HPM_P1;HPM_P2
2022/04/14 00:01:05;;;;;;;1.73;1.67;;;10.70;99.90;;;;;;5010910;28;20096;-72
2022/04/14 00:03:31;;;;;;;1.00;1.00;;;10.70;99.90;;;;;;5010745;28;20045;-72
2022/04/14 00:05:56;;;;;;;1.80;1.80;;;10.70;99.90;;;;;;5009753;28;20041;-72
2022/04/14 00:08:22;;;;;;;1.40;1.40;;;10.60;99.90;;;;;;5010809;28;20076;-72
2022/04/14 00:10:47;;;;;;;11.45;5.97;;;10.60;99.90;;;;;;5010329;28;20040;-72
2022/04/14 00:13:13;;;;;;;1.55;1.55;;;10.60;99.90;;;;;;5011021;28;20080;-72
2022/04/14 00:15:39;;;;;;;1.10;1.10;;;10.60;99.90;;;;;;4994717;28;20041;-72
2022/04/14 00:18:04;;;;;;;2.00;1.90;;;10.50;99.90;;;;;;4990843;28;20041;-72
2022/04/14 00:20:30;;;;;;;2.75;2.63;;;10.50;99.90;;;;;;5010402;28;20048;-72
2022/04/14 00:22:56;;;;;;;1.95;1.85;;;10.50;99.90;;;;;;5009187;28;20133;-72
2022/04/14 00:25:21;;;;;;;1.50;1.50;;;10.40;99.90;;;;;;5009527;28;20084;-72
2022/04/14 00:27:47;;;;;;;1.55;1.55;;;10.40;99.90;;;;;;4993866;28;20073;-72
2022/04/14 00:30:13;;;;;;;1.30;1.30;;;10.40;99.90;;;;;;5007705;28;20053;-72
2022/04/14 00:32:39;;;;;;;1.58;1.58;;;10.30;99.90;;;;;;5006737;28;20048;-72
2022/04/14 00:35:05;;;;;;;1.60;1.60;;;10.30;99.90;;;;;;4992890;28;20383;-72
2022/04/14 00:37:30;;;;;;;2.20;2.10;;;10.30;99.90;;;;;;5010758;28;20405;-72
2022/04/14 00:39:56;;;;;;;2.00;1.90;;;10.20;99.90;;;;;;5006626;28;20095;-73
2022/04/14 00:42:22;;;;;;;2.58;2.47;;;10.20;99.90;;;;;;5009014;28;20038;-72
2022/04/14 00:44:47;;;;;;;1.63;1.63;;;10.20;99.90;;;;;;5026303;28;20460;-72
2022/04/14 00:47:14;;;;;;;1.70;1.70;;;10.20;99.90;;;;;;5015717;28;20120;-72
2022/04/14 00:49:40;;;;;;;1.60;1.60;;;10.10;99.90;;;;;;5010045;28;20038;-72
2022/04/14 00:52:06;;;;;;;1.70;1.70;;;10.00;99.90;;;;;;5010423;28;20056;-72
2022/04/14 00:54:32;;;;;;;1.50;1.50;;;10.00;99.90;;;;;;4994306;28;20079;-73
2022/04/14 00:57:02;;;;;;;1.73;1.73;;;9.90;99.90;;;;;;5010630;28;20112;-72
2022/04/14 00:59:29;;;;;;;2.10;2.00;;;9.90;99.90;;;;;;4994725;28;20089;-72
2022/04/14 01:01:55;;;;;;;2.45;2.35;;;9.80;99.90;;;;;;5009829;28;20053;-72
2022/04/14 01:04:21;;;;;;;2.30;2.20;;;9.70;99.90;;;;;;5009328;28;20091;-72
2022/04/14 01:06:47;;;;;;;2.47;2.38;;;9.70;99.90;;;;;;4993290;28;20041;-72
2022/04/14 01:09:19;;;;;;;3.20;3.00;;;9.60;99.90;;;;;;4996312;28;20041;-72
2022/04/14 01:11:53;;;;;;;2.50;2.40;;;9.60;99.90;;;;;;5013644;28;20049;-72
2022/04/14 01:14:24;;;;;;;2.45;2.35;;;9.60;99.90;;;;;;4997100;28;20048;-72
2022/04/14 01:16:50;;;;;;;2.00;1.90;;;9.50;99.90;;;;;;5013366;28;20033;-72
2022/04/14 01:19:15;;;;;;;3.40;3.15;;;9.50;99.90;;;;;;4997969;28;20037;-72
2022/04/14 01:21:52;;;;;;;1.55;1.55;;;9.40;99.90;;;;;;5013698;28;20041;-72
2022/04/14 01:24:18;;;;;;;2.00;1.90;;;9.40;99.90;;;;;;4998140;28;20505;-72
2022/04/14 01:26:44;;;;;;;1.83;1.77;;;9.40;99.90;;;;;;5011594;28;20046;-72
2022/04/14 01:29:23;;;;;;;2.20;2.10;;;9.30;99.90;;;;;;5012189;28;20512;-72
2022/04/14 01:31:50;;;;;;;2.50;2.40;;;9.30;99.90;;;;;;4997065;28;20037;-72
2022/04/14 01:34:16;;;;;;;2.65;2.55;;;9.30;99.90;;;;;;5013407;28;20050;-72
2022/04/14 01:36:42;;;;;;;2.13;2.03;;;9.20;99.90;;;;;;5013135;28;20029;-72
2022/04/14 01:39:11;;;;;;;2.05;1.95;;;9.20;99.90;;;;;;5016010;28;20136;-73
2022/04/14 01:41:41;;;;;;;2.50;2.40;;;9.10;99.90;;;;;;4997496;28;20056;-72
2022/04/14 01:44:08;;;;;;;2.50;2.40;;;9.10;99.90;;;;;;5013519;28;20113;-72
2022/04/14 01:46:34;;;;;;;2.80;2.60;;;9.10;99.90;;;;;;5013106;28;20071;-72
2022/04/14 01:49:00;;;;;;;1.92;1.83;;;9.00;99.90;;;;;;4996897;28;20041;-72
2022/04/14 01:51:27;;;;;;;2.00;1.90;;;9.00;99.90;;;;;;4996724;28;20041;-72
2022/04/14 01:53:53;;;;;;;2.03;1.92;;;9.00;99.90;;;;;;5012154;28;20045;-72
2022/04/14 01:56:18;;;;;;;2.78;2.67;;;8.90;99.90;;;;;;5012431;28;20041;-72
2022/04/14 01:58:45;;;;;;;1.90;1.80;;;8.90;99.90;;;;;;4996402;28;20057;-72
2022/04/14 02:01:11;;;;;;;2.25;2.15;;;8.90;99.90;;;;;;5012789;28;20051;-72
2022/04/14 02:03:36;;;;;;;2.60;2.50;;;8.80;99.90;;;;;;5010383;28;20413;-72
2022/04/14 02:06:02;;;;;;;2.60;2.50;;;8.80;99.90;;;;;;4996655;28;20033;-72
2022/04/14 02:08:28;;;;;;;1.70;1.70;;;8.80;99.90;;;;;;4996752;28;20412;-72
2022/04/14 02:10:54;;;;;;;4.53;2.92;;;8.70;99.90;;;;;;4995924;28;20041;-72
2022/04/14 02:13:20;;;;;;;2.90;2.80;;;8.70;99.90;;;;;;5013345;28;20049;-72
2022/04/14 02:15:45;;;;;;;3.60;3.40;;;8.70;99.90;;;;;;5013205;28;20033;-72
2022/04/14 02:18:11;;;;;;;3.50;3.30;;;8.70;99.90;;;;;;4995582;28;20047;-72
2022/04/14 02:20:37;;;;;;;3.05;2.92;;;8.60;99.90;;;;;;5012081;28;20041;-71
2022/04/14 02:23:03;;;;;;;3.40;3.20;;;8.60;99.90;;;;;;5012457;28;20432;-72
2022/04/14 02:25:28;;;;;;;2.65;2.55;;;8.60;99.90;;;;;;5008579;28;20046;-72
2022/04/14 02:27:54;;;;;;;2.67;2.58;;;8.60;99.90;;;;;;4985259;28;20048;-72
2022/04/14 02:30:20;;;;;;;2.20;2.10;;;8.50;99.90;;;;;;5009901;28;20048;-72
2022/04/14 02:32:46;;;;;;;2.90;2.80;;;8.50;99.90;;;;;;5012013;28;20160;-72
2022/04/14 02:35:11;;;;;;;2.90;2.80;;;8.50;99.90;;;;;;5012359;28;20042;-72
2022/04/14 02:37:37;;;;;;;2.88;2.78;;;8.40;99.90;;;;;;4995582;28;20486;-72
2022/04/14 02:40:04;;;;;;;3.50;3.30;;;8.40;99.90;;;;;;4995050;28;20123;-72
2022/04/14 02:42:30;;;;;;;2.30;2.20;;;8.40;99.90;;;;;;4996775;28;20049;-72
2022/04/14 02:44:56;;;;;;;2.60;2.50;;;8.30;99.90;;;;;;4995499;28;20111;-71
2022/04/14 02:47:21;;;;;;;3.45;3.25;;;8.40;99.90;;;;;;4995017;28;20041;-72
2022/04/14 02:49:47;;;;;;;3.15;2.97;;;8.40;99.90;;;;;;4995935;28;20053;-72
2022/04/14 02:52:12;;;;;;;2.85;2.75;;;8.30;99.90;;;;;;5011772;28;20037;-72
2022/04/14 02:54:38;;;;;;;4.55;4.35;;;8.30;99.90;;;;;;5009897;28;20033;-72
2022/04/14 02:57:08;;;;;;;3.28;3.08;;;8.30;99.90;;;;;;4996155;28;20049;-72
2022/04/14 02:59:35;;;;;;;3.40;3.20;;;8.20;99.90;;;;;;5011530;28;20087;-72
2022/04/14 03:02:01;;;;;;;5.55;5.25;;;8.20;99.90;;;;;;5011488;28;20052;-72
2022/04/14 03:04:29;;;;;;;5.20;4.85;;;8.10;99.90;;;;;;5011961;28;20501;-72
2022/04/14 03:06:55;;;;;;;3.10;2.95;;;8.10;99.90;;;;;;5011559;28;20375;-72
2022/04/14 03:09:21;;;;;;;4.00;3.80;;;8.00;99.90;;;;;;5010968;28;20180;-71
2022/04/14 03:11:46;;;;;;;4.65;4.43;;;8.00;99.90;;;;;;4995203;28;20034;-72
2022/04/14 03:14:12;;;;;;;4.20;4.00;;;8.00;99.90;;;;;;5011203;28;20536;-72
2022/04/14 03:16:37;;;;;;;6.70;6.32;;;7.90;99.90;;;;;;5002039;28;20049;-72
2022/04/14 03:19:03;;;;;;;3.83;3.63;;;8.00;99.90;;;;;;5007454;28;20128;-72
2022/04/14 03:21:29;;;;;;;3.22;3.03;;;8.00;99.90;;;;;;5011256;28;20042;-72
2022/04/14 03:23:54;;;;;;;3.53;3.33;;;8.10;99.90;;;;;;5010673;28;20191;-72
2022/04/14 03:26:20;;;;;;;5.57;5.18;;;8.10;99.90;;;;;;4992866;28;20061;-72
2022/04/14 03:28:45;;;;;;;2.40;2.30;;;8.10;99.90;;;;;;4994295;28;20046;-72
2022/04/14 03:31:11;;;;;;;2.90;2.70;;;8.10;99.90;;;;;;5010567;28;20029;-72
2022/04/14 03:33:37;;;;;;;7.90;5.78;;;8.20;99.90;;;;;;5011056;28;20138;-72
2022/04/14 03:36:03;;;;;;;2.40;2.30;;;8.20;99.90;;;;;;5027272;28;21890;-72
2022/04/14 03:38:28;;;;;;;2.45;2.35;;;8.20;99.90;;;;;;5010824;28;20902;-72
2022/04/14 03:40:54;;;;;;;2.50;2.40;;;8.20;99.90;;;;;;5011399;28;20037;-72
2022/04/14 03:43:20;;;;;;;3.42;3.22;;;8.10;99.90;;;;;;5010840;28;20045;-72
2022/04/14 03:45:46;;;;;;;3.08;2.97;;;8.10;99.90;;;;;;5011642;28;20041;-72
2022/04/14 03:48:11;;;;;;;3.25;3.05;;;8.10;99.90;;;;;;5007825;28;20040;-72
2022/04/14 03:50:37;;;;;;;4.72;4.50;;;8.00;99.90;;;;;;5009661;28;20068;-72
2022/04/14 03:53:03;;;;;;;3.65;3.45;;;7.90;99.90;;;;;;4993506;28;20053;-72
2022/04/14 03:55:28;;;;;;;4.05;3.85;;;7.90;99.90;;;;;;4994281;28;20079;-72
2022/04/14 03:57:54;;;;;;;5.72;5.43;;;7.80;99.90;;;;;;5010878;28;20257;-72
2022/04/14 04:00:20;;;;;;;3.95;3.10;;;7.80;99.90;;;;;;4994369;28;20551;-72
2022/04/14 04:02:45;;;;;;;4.07;3.88;;;7.80;99.90;;;;;;4994391;28;20405;-72
2022/04/14 04:05:11;;;;;;;5.80;5.50;;;7.80;99.90;;;;;;5007116;28;20037;-72
2022/04/14 04:07:38;;;;;;;5.95;5.65;;;7.80;99.90;;;;;;5010904;28;20033;-72
2022/04/14 04:10:04;;;;;;;5.85;5.55;;;7.80;99.90;;;;;;5009906;28;20051;-72
2022/04/14 04:12:30;;;;;;;3.60;3.40;;;7.70;99.90;;;;;;5009703;28;20049;-72
2022/04/14 04:14:56;;;;;;;5.10;4.80;;;7.70;99.90;;;;;;5027198;28;20595;-72
2022/04/14 04:17:22;;;;;;;4.45;4.25;;;7.60;99.90;;;;;;5010698;28;20049;-72
2022/04/14 04:19:47;;;;;;;4.32;4.13;;;7.60;99.90;;;;;;4981699;28;20072;-71
2022/04/14 04:22:13;;;;;;;5.53;5.22;;;7.50;99.90;;;;;;4999926;28;20711;-72
2022/04/14 04:24:39;;;;;;;6.55;6.15;;;7.50;99.90;;;;;;5009038;28;20099;-72
2022/04/14 04:27:05;;;;;;;4.10;3.90;;;7.50;99.90;;;;;;4990613;28;20546;-71
2022/04/14 04:29:31;;;;;;;4.85;4.60;;;7.50;99.90;;;;;;5018829;28;20069;-72
2022/04/14 04:31:56;;;;;;;6.70;6.30;;;7.50;99.90;;;;;;5004913;28;20085;-72
2022/04/14 04:34:23;;;;;;;6.60;6.25;;;7.40;99.90;;;;;;5026996;28;20037;-72
2022/04/14 04:36:48;;;;;;;9.52;9.02;;;7.40;99.90;;;;;;5009625;28;20045;-72
2022/04/14 04:39:14;;;;;;;5.30;5.00;;;7.40;99.90;;;;;;4991335;28;20164;-72
2022/04/14 04:41:40;;;;;;;5.05;4.75;;;7.30;99.90;;;;;;5007764;28;20153;-72
2022/04/14 04:44:05;;;;;;;4.38;4.18;;;7.30;99.90;;;;;;5013599;28;20041;-72
2022/04/14 04:46:31;;;;;;;5.22;4.93;;;7.30;99.90;;;;;;4995944;28;20045;-72
2022/04/14 04:48:57;;;;;;;5.50;5.20;;;7.20;99.90;;;;;;5013858;28;20056;-72
2022/04/14 04:51:24;;;;;;;6.70;6.32;;;7.20;99.90;;;;;;5011690;28;20402;-72
2022/04/14 04:53:50;;;;;;;5.60;5.30;;;7.20;99.90;;;;;;5013256;28;20052;-72
2022/04/14 04:56:18;;;;;;;4.95;4.65;;;7.10;99.90;;;;;;5031257;28;20037;-72
2022/04/14 04:58:44;;;;;;;4.22;4.03;;;7.20;99.90;;;;;;5012222;28;20405;-72
2022/04/14 05:01:09;;;;;;;4.93;4.63;;;7.10;99.90;;;;;;4996292;28;20045;-72
2022/04/14 05:03:35;;;;;;;4.85;4.55;;;7.10;99.90;;;;;;5009368;28;20176;-72
2022/04/14 05:06:00;;;;;;;5.03;4.72;;;7.10;99.90;;;;;;5013763;28;20489;-72
2022/04/14 05:08:32;;;;;;;5.47;5.18;;;7.10;99.90;;;;;;5012379;28;20037;-72
2022/04/14 05:10:58;;;;;;;6.18;5.88;;;7.00;99.90;;;;;;5013015;28;20048;-71
2022/04/14 05:13:23;;;;;;;6.03;5.72;;;7.10;99.90;;;;;;4996353;28;20512;-71
2022/04/14 05:15:49;;;;;;;5.80;5.50;;;7.10;99.90;;;;;;5013544;28;20045;-72
2022/04/14 05:18:14;;;;;;;7.30;6.90;;;7.10;99.90;;;;;;4991880;28;20490;-71
2022/04/14 05:20:42;;;;;;;5.80;5.50;;;7.20;99.90;;;;;;5029341;28;20048;-72
2022/04/14 05:23:09;;;;;;;7.30;6.90;;;7.20;99.90;;;;;;4996504;28;20045;-72
2022/04/14 05:25:35;;;;;;;5.53;5.22;;;7.40;99.90;;;;;;5011244;28;20057;-72
2022/04/14 05:28:01;;;;;;;3.90;3.70;;;7.40;99.90;;;;;;5013321;28;20034;-72
2022/04/14 05:30:26;;;;;;;5.55;5.25;;;7.50;99.90;;;;;;5012479;28;20034;-71
2022/04/14 05:32:52;;;;;;;5.60;5.30;;;7.70;99.90;;;;;;5013459;28;20072;-72
2022/04/14 05:35:17;;;;;;;9.65;8.73;;;7.80;99.90;;;;;;5013386;28;20037;-71
2022/04/14 05:37:43;;;;;;;5.80;5.50;;;8.00;99.90;;;;;;4997589;28;20049;-72
2022/04/14 05:40:09;;;;;;;4.60;4.32;;;8.20;99.90;;;;;;5012728;28;20089;-73
2022/04/14 05:42:35;;;;;;;4.38;4.18;;;8.40;99.90;;;;;;5013660;28;20394;-71
2022/04/14 05:45:00;;;;;;;4.30;4.10;;;8.60;99.90;;;;;;5012348;28;20034;-72
2022/04/14 05:47:26;;;;;;;3.63;3.42;;;8.70;99.90;;;;;;5009731;28;20050;-72
2022/04/14 05:49:53;;;;;;;4.63;4.32;;;8.80;99.90;;;;;;5026438;28;20064;-72
2022/04/14 05:52:19;;;;;;;4.75;4.45;;;8.90;99.90;;;;;;5012687;28;20041;-72
2022/04/14 05:54:48;;;;;;;3.70;3.50;;;8.90;99.90;;;;;;5011984;28;20053;-72
2022/04/14 05:57:15;;;;;;;5.90;4.20;;;9.00;99.90;;;;;;4993498;28;20371;-72
2022/04/14 05:59:40;;;;;;;3.92;3.72;;;9.10;99.90;;;;;;4996975;28;20401;-71
2022/04/14 06:02:06;;;;;;;5.30;5.00;;;9.20;99.90;;;;;;5012947;28;20051;-72
2022/04/14 06:04:32;;;;;;;4.32;4.13;;;9.40;99.90;;;;;;5011620;28;20144;-72
2022/04/14 06:06:58;;;;;;;2.65;2.55;;;9.60;99.90;;;;;;5011732;28;20140;-72
2022/04/14 06:09:23;;;;;;;1.90;1.80;;;10.00;99.90;;;;;;5003012;28;20401;-73
2022/04/14 06:11:49;;;;;;;2.63;2.45;;;10.30;99.90;;;;;;4995601;28;20041;-73
2022/04/14 06:14:15;;;;;;;4.00;3.70;;;10.70;99.90;;;;;;5011769;28;20115;-72
2022/04/14 06:16:40;;;;;;;5.40;4.90;;;11.00;99.90;;;;;;5012326;28;20083;-72
2022/04/14 06:19:06;;;;;;;3.88;3.58;;;11.20;99.90;;;;;;4997094;28;20173;-72
2022/04/14 06:21:31;;;;;;;2.60;2.50;;;11.00;99.90;;;;;;5013020;28;20041;-72
2022/04/14 06:23:57;;;;;;;5.35;4.93;;;10.80;99.90;;;;;;5011187;28;20788;-73
2022/04/14 06:26:23;;;;;;;5.72;5.28;;;10.70;99.90;;;;;;5012896;28;20064;-72
2022/04/14 06:28:49;;;;;;;6.95;5.10;;;10.50;99.90;;;;;;5012448;28;20053;-73
2022/04/14 06:31:14;;;;;;;2.88;2.78;;;10.70;99.90;;;;;;5012761;28;20045;-72
2022/04/14 06:33:40;;;;;;;7.03;6.35;;;10.90;99.90;;;;;;5009777;28;20069;-72
2022/04/14 06:36:06;;;;;;;4.38;4.10;;;10.90;99.90;;;;;;5009628;28;20143;-73
2022/04/14 06:38:32;;;;;;;4.63;4.22;;;10.90;99.90;;;;;;5011946;28;20547;-73
2022/04/14 06:40:57;;;;;;;5.05;4.75;;;10.80;99.90;;;;;;5012871;28;20045;-73
2022/04/14 06:43:24;;;;;;;6.30;5.90;;;10.70;99.90;;;;;;5012542;28;20103;-73
2022/04/14 06:45:51;;;;;;;6.75;6.35;;;10.60;99.90;;;;;;5009684;28;20650;-71
2022/04/14 06:48:17;;;;;;;8.02;7.35;;;10.70;99.90;;;;;;4999068;28;20171;-72
2022/04/14 06:50:42;;;;;;;4.00;3.80;;;11.00;99.90;;;;;;5012736;28;20132;-72
2022/04/14 06:53:08;;;;;;;3.85;3.65;;;11.30;99.90;;;;;;5012103;28;20060;-72
2022/04/14 06:55:36;;;;;;;8.15;7.57;;;11.40;99.90;;;;;;5009998;28;20053;-72
2022/04/14 06:58:02;;;;;;;3.65;3.45;;;11.40;99.90;;;;;;5008957;28;20128;-72
2022/04/14 07:00:28;;;;;;;4.97;4.68;;;11.40;99.90;;;;;;4995872;28;20250;-73
2022/04/14 07:02:55;;;;;;;3.00;2.90;;;11.70;99.90;;;;;;5009945;28;20368;-72
2022/04/14 07:05:22;;;;;;;9.15;7.30;;;11.90;99.90;;;;;;4993298;28;20160;-72
2022/04/14 07:07:49;;;;;;;6.30;5.72;;;11.90;99.90;;;;;;5011657;28;20038;-72
2022/04/14 07:10:14;;;;;;;4.40;4.10;;;11.90;99.90;;;;;;5012019;28;20103;-72
2022/04/14 07:12:42;;;;;;;3.42;3.22;;;11.90;99.90;;;;;;4995867;28;20490;-72
2022/04/14 07:15:08;;;;;;;10.85;9.88;;;11.90;99.90;;;;;;4989135;28;20045;-73
2022/04/14 07:17:34;;;;;;;6.43;5.78;;;12.10;99.90;;;;;;5022946;28;20425;-73
2022/04/14 07:20:05;;;;;;;7.70;7.03;;;12.10;99.90;;;;;;4992154;28;20111;-72
2022/04/14 07:22:40;;;;;;;11.15;10.02;;;12.20;99.90;;;;;;4998392;28;20480;-73
2022/04/14 07:25:06;;;;;;;4.60;4.30;;;12.20;99.90;;;;;;5011404;28;20068;-73
2022/04/14 07:27:31;;;;;;;5.22;4.90;;;12.30;99.90;;;;;;5027614;28;20049;-73
2022/04/14 07:29:57;;;;;;;4.63;4.28;;;12.30;99.90;;;;;;4991613;28;20382;-73
2022/04/14 07:32:22;;;;;;;6.20;5.70;;;12.40;99.90;;;;;;5002075;28;20045;-73
2022/04/14 07:34:48;;;;;;;3.17;2.97;;;12.50;99.90;;;;;;4994836;28;20052;-73
2022/04/14 07:37:13;;;;;;;5.95;5.30;;;12.60;99.90;;;;;;4994447;28;20095;-73
2022/04/14 07:39:40;;;;;;;4.45;4.15;;;12.60;99.90;;;;;;4994301;28;20053;-73
2022/04/14 07:42:06;;;;;;;5.70;5.30;;;12.70;99.90;;;;;;4994924;28;20067;-73
2022/04/14 07:44:31;;;;;;;4.32;4.03;;;12.80;99.90;;;;;;4995252;28;20045;-73
2022/04/14 07:46:57;;;;;;;14.88;11.02;;;12.80;99.90;;;;;;4995040;28;20056;-72
2022/04/14 07:49:22;;;;;;;6.85;6.18;;;13.00;99.90;;;;;;4995262;28;20052;-73
2022/04/14 07:51:48;;;;;;;2.35;2.25;;;13.00;99.90;;;;;;5011540;28;20127;-73
2022/04/14 07:54:14;;;;;;;3.38;3.17;;;13.10;99.90;;;;;;4993996;28;20047;-72
2022/04/14 07:56:39;;;;;;;6.03;4.75;;;13.20;99.90;;;;;;4995019;28;20480;-72
2022/04/14 07:59:05;;;;;;;2.88;2.67;;;13.30;99.90;;;;;;5011360;28;20056;-72
2022/04/14 08:01:30;;;;;;;2.40;2.30;;;13.40;99.90;;;;;;4997136;28;20504;-73
2022/04/14 08:03:56;;;;;;;2.20;2.10;;;13.40;99.90;;;;;;4994122;28;20501;-73
2022/04/14 08:06:25;;;;;;;3.42;3.22;;;13.50;99.90;;;;;;5011231;28;20081;-72
2022/04/14 08:08:51;;;;;;;4.28;3.40;;;13.60;99.90;;;;;;5004690;28;20042;-72
2022/04/14 08:11:16;;;;;;;3.65;3.42;;;13.80;99.90;;;;;;4994348;28;20096;-72
2022/04/14 08:13:42;;;;;;;5.05;4.60;;;13.90;99.90;;;;;;5003752;28;20041;-73
2022/04/14 08:16:09;;;;;;;11.35;8.20;;;13.90;99.90;;;;;;4991461;28;20046;-73
2022/04/14 08:18:39;;;;;;;3.08;2.88;;;14.00;99.90;;;;;;5004581;28;20049;-72
2022/04/14 08:21:06;;;;;;;2.15;2.00;;;14.10;99.90;;;;;;4994861;28;20036;-73
2022/04/14 08:23:34;;;;;;;3.35;3.15;;;14.10;99.90;;;;;;5010954;28;20067;-73
2022/04/14 08:26:01;;;;;;;3.35;2.78;;;14.20;99.90;;;;;;5006278;28;20050;-73
2022/04/14 08:28:27;;;;;;;2.63;2.42;;;14.30;99.90;;;;;;4987820;28;20064;-73
2022/04/14 08:30:54;;;;;;;7.93;5.10;;;14.30;99.90;;;;;;5010432;28;20049;-73
2022/04/14 08:33:23;;;;;;;10.45;5.53;;;14.40;99.90;;;;;;4994493;28;20049;-72
2022/04/14 08:35:51;;;;;;;9.07;6.15;;;14.60;99.90;;;;;;4993435;28;20091;-73
2022/04/14 08:38:17;;;;;;;4.78;4.05;;;15.00;99.90;;;;;;5010637;28;20050;-72
2022/04/14 08:40:46;;;;;;;6.15;4.93;;;15.40;99.90;;;;;;5010437;28;20041;-72
2022/04/14 08:43:15;;;;;;;6.22;3.85;;;15.70;99.90;;;;;;5010248;28;20075;-72
2022/04/14 08:45:46;;;;;;;2.72;2.25;;;16.10;99.90;;;;;;5007490;28;20522;-72
2022/04/14 08:48:13;;;;;;;2.97;2.63;;;16.20;99.90;;;;;;5003056;28;20034;-72
2022/04/14 08:50:39;;;;;;;1.50;1.50;;;16.30;99.90;;;;;;4991477;28;20052;-72
2022/04/14 08:53:05;;;;;;;3.22;2.92;;;16.40;99.90;;;;;;4994002;28;20112;-73
2022/04/14 08:55:31;;;;;;;4.13;3.22;;;16.60;99.90;;;;;;5010391;28;20049;-72
2022/04/14 08:57:57;;;;;;;2.72;2.58;;;17.40;99.90;;;;;;5009986;28;20045;-73
2022/04/14 09:00:22;;;;;;;7.50;4.78;;;18.30;99.90;;;;;;5009356;28;20061;-73
2022/04/14 09:02:50;;;;;;;6.55;2.90;;;18.90;99.90;;;;;;4982322;28;20045;-73
2022/04/14 09:05:17;;;;;;;7.57;3.40;;;19.20;99.90;;;;;;4990742;28;20044;-73
2022/04/14 09:07:49;;;;;;;2.33;2.13;;;19.40;99.90;;;;;;5004817;28;20046;-73
2022/04/14 09:10:16;;;;;;;2.00;1.88;;;19.60;99.90;;;;;;5016399;28;20434;-72
2022/04/14 09:12:42;;;;;;;3.72;2.85;;;19.70;99.90;;;;;;4994823;28;20050;-73
2022/04/14 09:15:08;;;;;;;1.88;1.77;;;19.70;99.90;;;;;;4993392;28;20041;-73
2022/04/14 09:17:33;;;;;;;2.67;2.25;;;19.60;99.90;;;;;;5008259;28;20427;-72
2022/04/14 09:19:59;;;;;;;4.53;2.50;;;19.60;99.90;;;;;;5008145;28;20040;-72
2022/04/14 09:22:25;;;;;;;2.97;2.22;;;19.70;99.90;;;;;;4991550;28;21522;-72
2022/04/14 09:24:54;;;;;;;3.20;2.03;;;20.00;99.90;;;;;;5004871;28;20050;-72
2022/04/14 09:27:39;;;;;;;6.50;4.47;;;20.10;99.90;;;;;;5010096;28;20084;-72
2022/04/14 09:30:08;;;;;;;2.83;2.63;;;20.20;99.90;;;;;;5012738;28;20078;-73
2022/04/14 09:32:36;;;;;;;4.05;2.72;;;20.20;99.90;;;;;;5012645;28;20045;-72
2022/04/14 09:35:14;;;;;;;9.48;5.18;;;20.20;99.90;;;;;;4997287;28;20052;-72
2022/04/14 09:37:41;;;;;;;8.27;4.40;;;20.10;99.90;;;;;;5012342;28;20045;-73
2022/04/14 09:40:08;;;;;;;6.97;3.58;;;19.60;99.90;;;;;;5029670;28;20045;-73
2022/04/14 09:42:37;;;;;;;2.85;2.25;;;19.50;99.90;;;;;;5013217;28;20097;-73
2022/04/14 09:45:22;;;;;;;6.68;1.50;;;19.50;99.90;;;;;;5006294;28;20042;-73
2022/04/14 09:47:49;;;;;;;2.75;1.85;;;19.70;99.90;;;;;;5007341;28;20041;-73
2022/04/14 09:50:35;;;;;;;8.57;2.90;;;19.70;99.90;;;;;;4996384;28;20045;-73
2022/04/14 09:53:07;;;;;;;3.40;2.15;;;19.50;99.90;;;;;;4996803;28;20083;-73
2022/04/14 09:55:38;;;;;;;0.90;0.90;;;19.30;99.90;;;;;;5010089;28;20033;-73
2022/04/14 09:58:17;;;;;;;5.80;3.78;;;19.20;99.90;;;;;;5006659;28;20052;-72
2022/04/14 10:00:50;;;;;;;4.57;2.45;;;19.40;99.90;;;;;;5013526;28;20053;-73
2022/04/14 10:03:23;;;;;;;1.10;1.10;;;19.10;99.90;;;;;;5012786;28;20041;-73
2022/04/14 10:05:51;;;;;;;1.92;1.70;;;18.90;99.90;;;;;;5009833;28;20045;-72
2022/04/14 10:08:17;;;;;;;6.15;2.67;;;19.10;99.90;;;;;;5012402;28;20053;-73
2022/04/14 10:10:45;;;;;;;2.03;1.55;;;19.20;99.90;;;;;;5012360;28;20045;-73
2022/04/14 10:13:12;;;;;;;5.38;2.75;;;19.40;99.90;;;;;;5010951;28;20520;-73
2022/04/14 10:15:46;;;;;;;3.70;2.55;;;19.60;99.90;;;;;;5028766;28;20537;-72
2022/04/14 10:18:17;;;;;;;2.90;2.60;;;19.80;99.90;;;;;;5009922;28;20037;-73
2022/04/14 10:20:44;;;;;;;7.15;3.30;;;19.70;99.80;;;;;;5010895;28;20451;-73
2022/04/14 10:23:12;;;;;;;4.55;2.85;;;19.60;99.00;;;;;;5012379;28;20134;-72
2022/04/14 10:25:39;;;;;;;5.38;2.33;;;19.40;98.70;;;;;;5011982;28;20057;-73
2022/04/14 10:28:11;;;;;;;2.55;1.88;;;19.00;96.70;;;;;;5004149;28;20069;-73
2022/04/14 10:30:37;;;;;;;;;;;18.50;98.40;;;;;;5009469;28;20155;-72
2022/04/14 10:33:03;;;;;;;3.30;2.40;;;18.20;98.90;;;;;;5009956;28;20109;-72
2022/04/14 10:35:32;;;;;;;4.30;1.83;;;18.10;99.90;;;;;;5005689;28;20111;-72
2022/04/14 10:38:29;;;;;;;5.88;2.45;;;18.20;99.90;;;;;;4994670;28;20136;-71
2022/04/14 10:41:05;;;;;;;4.70;1.95;;;18.50;99.90;;;;;;5023977;28;20420;-73
2022/04/14 10:43:37;;;;;;;3.60;2.38;;;18.70;99.90;;;;;;5007664;28;20049;-73
2022/04/14 10:46:04;;;;;;;2.15;1.45;;;19.00;98.00;;;;;;4992575;28;20055;-73
2022/04/14 10:48:33;;;;;;;1.88;1.30;;;19.00;98.30;;;;;;4994250;28;20096;-72
2022/04/14 10:51:23;;;;;;;3.75;1.55;;;19.20;99.80;;;;;;4994688;28;20040;-73
2022/04/14 10:54:11;;;;;;;1.42;0.90;;;19.20;97.30;;;;;;5018948;28;20060;-72
2022/04/14 10:56:36;;;;;;;0.98;0.90;;;18.80;97.50;;;;;;4989338;28;20049;-71
2022/04/14 10:59:07;;;;;;;0.93;0.93;;;18.70;98.80;;;;;;5012474;28;20041;-72
2022/04/14 11:01:48;;;;;;;5.63;1.20;;;18.70;97.90;;;;;;5010390;28;20041;-71
2022/04/14 11:04:32;;;;;;;5.90;2.17;;;18.80;97.70;;;;;;5004012;28;20049;-72
2022/04/14 11:07:08;;;;;;;1.90;1.52;;;19.00;96.90;;;;;;4989495;28;20041;-72
2022/04/14 11:09:41;;;;;;;2.30;1.27;;;19.10;96.90;;;;;;4996643;28;20124;-72
2022/04/14 11:12:07;;;;;;;1.38;1.00;;;19.10;95.20;;;;;;5002639;28;20073;-72
2022/04/14 11:14:57;;;;;;;3.35;0.82;;;19.00;95.70;;;;;;4985673;28;20108;-72
2022/04/14 11:17:37;;;;;;;2.78;1.25;;;19.20;96.70;;;;;;4996921;28;20054;-72
2022/04/14 11:20:34;;;;;;;1.00;0.90;;;19.30;94.60;;;;;;5015875;28;20685;-72
2022/04/14 11:23:12;;;;;;;0.65;0.65;;;19.30;92.50;;;;;;5002734;28;20057;-72
2022/04/14 11:25:41;;;;;;;1.13;0.98;;;19.30;93.60;;;;;;4996469;28;20054;-72
2022/04/14 11:28:27;;;;;;;3.28;0.93;;;19.40;92.40;;;;;;5022641;28;20099;-75
2022/04/14 11:30:54;;;;;;;0.75;0.70;;;19.40;90.30;;;;;;5020843;28;20041;-75
2022/04/14 11:33:32;;;;;;;4.13;2.08;;;19.30;89.50;;;;;;5001055;28;20552;-75
2022/04/14 11:36:14;;;;;;;3.92;0.57;;;19.20;86.30;;;;;;5006069;28;20064;-75
2022/04/14 11:38:58;;;;;;;1.02;0.73;;;19.10;88.80;;;;;;5010644;28;20049;-74
2022/04/14 11:41:44;;;;;;;4.63;1.08;;;19.10;91.30;;;;;;5011092;28;20045;-74
2022/04/14 11:44:14;;;;;;;2.90;1.33;;;19.20;92.80;;;;;;5004447;28;20077;-75
2022/04/14 11:46:43;;;;;;;1.90;1.67;;;19.20;92.40;;;;;;5009460;28;20148;-74
2022/04/14 11:49:12;;;;;;;1.60;1.50;;;19.20;93.00;;;;;;5006912;28;20048;-74
2022/04/14 11:51:58;;;;;;;4.00;1.67;;;19.20;92.50;;;;;;4995299;28;20553;-74
2022/04/14 11:54:26;;;;;;;1.02;0.75;;;19.20;93.00;;;;;;5009883;28;20438;-74
2022/04/14 11:56:54;;;;;;;4.40;1.80;;;18.90;91.60;;;;;;5008458;28;20038;-74
2022/04/14 11:59:46;;;;;;;5.50;3.08;;;18.60;92.80;;;;;;5009186;28;20029;-74
2022/04/14 12:02:21;;;;;;;7.80;2.42;;;18.50;92.60;;;;;;5008649;28;20067;-74
2022/04/14 12:04:57;;;;;;;1.67;1.40;;;18.20;93.10;;;;;;5006370;28;20493;-74
2022/04/14 12:07:31;;;;;;;3.03;2.20;;;18.20;95.60;;;;;;4988382;28;20512;-74
2022/04/14 12:09:59;;;;;;;4.00;1.55;;;18.50;96.80;;;;;;5005573;28;20056;-74
2022/04/14 12:12:24;;;;;;;4.57;1.80;;;18.70;94.80;;;;;;4991009;28;20133;-74
2022/04/14 12:14:52;;;;;;;3.60;1.35;;;18.80;93.70;;;;;;5005583;28;20136;-74
2022/04/14 12:17:23;;;;;;;3.50;1.88;;;18.90;94.90;;;;;;4992633;28;20052;-74
2022/04/14 12:19:54;;;;;;;2.53;1.77;;;19.10;94.80;;;;;;5005813;28;20038;-75
2022/04/14 12:22:21;;;;;;;2.72;1.92;;;19.20;94.40;;;;;;4981338;28;20046;-75
2022/04/14 12:24:54;;;;;;;0.75;0.75;;;19.20;94.90;;;;;;5010286;28;20440;-74
2022/04/14 12:27:24;;;;;;;4.13;1.73;;;19.20;93.70;;;;;;5008681;28;20525;-75
2022/04/14 12:29:54;;;;;;;1.20;1.08;;;19.10;92.40;;;;;;5009780;28;20050;-75
2022/04/14 12:32:27;;;;;;;0.95;0.95;;;18.90;93.30;;;;;;5008470;28;20113;-75
2022/04/14 12:34:53;;;;;;;;;;;18.90;94.70;;;;;;4990480;28;20397;-75
2022/04/14 12:37:19;;;;;;;0.85;0.68;;;18.90;94.00;;;;;;5010189;28;19921;-75
2022/04/14 12:39:59;;;;;;;1.73;1.42;;;18.80;93.40;;;;;;4990835;28;20048;-75
2022/04/14 12:42:35;;;;;;;3.25;1.98;;;18.80;93.80;;;;;;5021274;28;20049;-75
2022/04/14 12:45:04;;;;;;;0.85;0.85;;;18.60;94.30;;;;;;4994636;28;20045;-75
2022/04/14 12:47:30;;;;;;;6.30;1.58;;;18.40;94.60;;;;;;4993970;28;20041;-75
2022/04/14 12:49:57;;;;;;;4.57;2.33;;;18.40;94.50;;;;;;5007674;28;20050;-75
2022/04/14 12:52:23;;;;;;;4.53;1.92;;;18.20;94.60;;;;;;4974811;28;20696;-75
2022/04/14 12:54:50;;;;;;;2.15;1.88;;;18.10;94.40;;;;;;4975223;28;20144;-75